LSZB/BRN METAR and TAF weather

Enter ICAO airport designator
Station Type Date Time Source
LSZB METAR 2019/08/24 21:50 UTC NOAA

LSZB 242150Z AUTO VRB01KT CAVOK 15/15 Q1020


Station Type Date Time Source
LSZB Decoded METAR 2019/08/24 21:50 UTC NOAA

Station name not available
Aug 24, 2019 - 05:50 PM EDT / 2019.08.24 2150 UTC
Wind: Variable at 1 MPH (1 KT):0
Visibility: greater than 7 mile(s):0
Temperature: 59 F (15 C)
Dew Point: 59 F (15 C)
Relative Humidity: 100%
Pressure (altimeter): 30.12 in. Hg (1020 hPa)
ob: LSZB 242150Z AUTO VRB01KT CAVOK 15/15 Q1020
cycle: 22

Station Type Date Time Source
LSZB TAF 2014/12/22 20:03 UTC NOAA

TAF
AMD TAF
AMD LSZB 222054Z 2220/2224 CNL

Example: see airport list